TED STEVENS ANCHORAGE INTL

PANC (ANC)
Anchorage, Alaska
Towered

Vatsim Metar:
PANC 130253Z VRB04KT 10SM BKN065 13/05 A3014 RMK AO2 SLP208 T01330050 53008

TED STEVENS ANCHORAGE INTL ATC

ANC_GND - 121.900 - Wiley Smith
Welcome to San Jose! Feedback is appreciated oakartcc.org/pilots/feedback. Live on Twitch sometimes twitch.tv/spectyrtheperson

Traffic

Inbound:
None
Outbound:
Ident
Type
Name
Destination
Phase